sensor_id;sensor_type;location;lat;lon;timestamp;temperature;humidity
27647;DHT22;42229;51.230;6.240;2023-02-15T00:00:35;3.90;99.90
27647;DHT22;42229;51.230;6.240;2023-02-15T00:03:02;3.90;99.90
27647;DHT22;42229;51.230;6.240;2023-02-15T00:05:29;3.90;99.90
27647;DHT22;42229;51.230;6.240;2023-02-15T00:07:56;3.90;99.90
27647;DHT22;42229;51.230;6.240;2023-02-15T00:10:22;3.90;99.90
27647;DHT22;42229;51.230;6.240;2023-02-15T00:12:49;3.90;99.90
27647;DHT22;42229;51.230;6.240;2023-02-15T00:15:15;3.90;99.90
27647;DHT22;42229;51.230;6.240;2023-02-15T00:17:41;3.90;99.90
27647;DHT22;42229;51.230;6.240;2023-02-15T00:20:08;3.90;99.90
27647;DHT22;42229;51.230;6.240;2023-02-15T00:22:34;3.90;99.90
27647;DHT22;42229;51.230;6.240;2023-02-15T00:25:01;3.90;99.90
27647;DHT22;42229;51.230;6.240;2023-02-15T00:27:27;4.00;99.90
27647;DHT22;42229;51.230;6.240;2023-02-15T00:29:53;3.90;99.90
27647;DHT22;42229;51.230;6.240;2023-02-15T00:32:19;3.90;99.90
27647;DHT22;42229;51.230;6.240;2023-02-15T00:34:46;3.90;99.90
27647;DHT22;42229;51.230;6.240;2023-02-15T00:37:12;3.90;99.90
27647;DHT22;42229;51.230;6.240;2023-02-15T00:39:38;3.90;99.90
27647;DHT22;42229;51.230;6.240;2023-02-15T00:42:05;3.90;99.90
27647;DHT22;42229;51.230;6.240;2023-02-15T00:44:31;3.90;99.90
27647;DHT22;42229;51.230;6.240;2023-02-15T00:46:57;3.90;99.90
27647;DHT22;42229;51.230;6.240;2023-02-15T00:49:24;3.90;99.90
27647;DHT22;42229;51.230;6.240;2023-02-15T00:51:50;3.90;99.90
27647;DHT22;42229;51.230;6.240;2023-02-15T00:54:16;3.90;99.90
27647;DHT22;42229;51.230;6.240;2023-02-15T00:56:42;3.90;99.90
27647;DHT22;42229;51.230;6.240;2023-02-15T00:59:09;3.90;99.90
27647;DHT22;42229;51.230;6.240;2023-02-15T01:01:35;3.80;99.90
27647;DHT22;42229;51.230;6.240;2023-02-15T01:04:01;3.80;99.90
27647;DHT22;42229;51.230;6.240;2023-02-15T01:06:29;3.80;99.90
27647;DHT22;42229;51.230;6.240;2023-02-15T01:08:55;3.80;99.90
27647;DHT22;42229;51.230;6.240;2023-02-15T01:11:21;3.80;99.90
27647;DHT22;42229;51.230;6.240;2023-02-15T01:13:54;3.80;99.90
27647;DHT22;42229;51.230;6.240;2023-02-15T01:16:22;3.70;99.90
27647;DHT22;42229;51.230;6.240;2023-02-15T01:18:49;3.70;99.90
27647;DHT22;42229;51.230;6.240;2023-02-15T01:21:16;3.70;99.90
27647;DHT22;42229;51.230;6.240;2023-02-15T01:23:45;3.60;99.90
27647;DHT22;42229;51.230;6.240;2023-02-15T01:26:12;3.60;99.90
27647;DHT22;42229;51.230;6.240;2023-02-15T01:28:39;3.60;99.90
27647;DHT22;42229;51.230;6.240;2023-02-15T01:31:06;3.60;99.90
27647;DHT22;42229;51.230;6.240;2023-02-15T01:33:34;3.60;99.90
27647;DHT22;42229;51.230;6.240;2023-02-15T01:36:01;3.60;99.90
27647;DHT22;42229;51.230;6.240;2023-02-15T01:38:28;3.50;99.90
27647;DHT22;42229;51.230;6.240;2023-02-15T01:40:54;3.50;99.90
27647;DHT22;42229;51.230;6.240;2023-02-15T01:43:41;3.50;99.90
27647;DHT22;42229;51.230;6.240;2023-02-15T01:46:08;3.50;99.90
27647;DHT22;42229;51.230;6.240;2023-02-15T01:48:35;3.40;99.90
27647;DHT22;42229;51.230;6.240;2023-02-15T01:51:09;3.40;99.90
27647;DHT22;42229;51.230;6.240;2023-02-15T01:53:37;3.40;99.90
27647;DHT22;42229;51.230;6.240;2023-02-15T01:56:15;3.40;99.90
27647;DHT22;42229;51.230;6.240;2023-02-15T01:58:49;3.40;99.90
27647;DHT22;42229;51.230;6.240;2023-02-15T02:01:16;3.30;99.90
27647;DHT22;42229;51.230;6.240;2023-02-15T02:06:30;3.30;99.90
27647;DHT22;42229;51.230;6.240;2023-02-15T02:08:58;3.20;99.90
27647;DHT22;42229;51.230;6.240;2023-02-15T02:11:24;3.20;99.90
27647;DHT22;42229;51.230;6.240;2023-02-15T02:13:51;3.20;99.90
27647;DHT22;42229;51.230;6.240;2023-02-15T02:16:22;3.20;99.90
27647;DHT22;42229;51.230;6.240;2023-02-15T02:27:41;3.10;99.90
27647;DHT22;42229;51.230;6.240;2023-02-15T02:32:51;3.10;99.90
27647;DHT22;42229;51.230;6.240;2023-02-15T02:43:34;3.10;99.90
27647;DHT22;42229;51.230;6.240;2023-02-15T02:46:26;3.00;99.90
27647;DHT22;42229;51.230;6.240;2023-02-15T02:48:56;3.00;99.90
27647;DHT22;42229;51.230;6.240;2023-02-15T02:51:22;3.00;99.90
27647;DHT22;42229;51.230;6.240;2023-02-15T02:53:51;3.00;99.90
27647;DHT22;42229;51.230;6.240;2023-02-15T02:56:28;2.90;99.90
27647;DHT22;42229;51.230;6.240;2023-02-15T02:59:34;2.90;99.90
27647;DHT22;42229;51.230;6.240;2023-02-15T03:02:07;2.90;99.90
27647;DHT22;42229;51.230;6.240;2023-02-15T03:04:39;2.80;99.90
27647;DHT22;42229;51.230;6.240;2023-02-15T03:07:09;2.80;99.90
27647;DHT22;42229;51.230;6.240;2023-02-15T03:09:39;2.80;99.90
27647;DHT22;42229;51.230;6.240;2023-02-15T03:12:15;2.70;99.90
27647;DHT22;42229;51.230;6.240;2023-02-15T03:14:47;2.70;99.90
27647;DHT22;42229;51.230;6.240;2023-02-15T03:17:16;2.60;99.90
27647;DHT22;42229;51.230;6.240;2023-02-15T03:19:43;2.60;99.90
27647;DHT22;42229;51.230;6.240;2023-02-15T03:22:16;2.60;99.90
27647;DHT22;42229;51.230;6.240;2023-02-15T03:24:53;2.50;99.90
27647;DHT22;42229;51.230;6.240;2023-02-15T03:27:37;2.50;99.90
27647;DHT22;42229;51.230;6.240;2023-02-15T03:30:06;2.50;99.90
27647;DHT22;42229;51.230;6.240;2023-02-15T03:32:34;2.50;99.90
27647;DHT22;42229;51.230;6.240;2023-02-15T03:35:01;2.40;99.90
27647;DHT22;42229;51.230;6.240;2023-02-15T03:39:56;2.40;99.90
27647;DHT22;42229;51.230;6.240;2023-02-15T03:42:44;2.40;99.90
27647;DHT22;42229;51.230;6.240;2023-02-15T03:45:13;2.40;99.90
27647;DHT22;42229;51.230;6.240;2023-02-15T03:47:42;2.30;99.90
27647;DHT22;42229;51.230;6.240;2023-02-15T03:53:17;2.30;99.90
27647;DHT22;42229;51.230;6.240;2023-02-15T03:55:46;2.30;99.90
27647;DHT22;42229;51.230;6.240;2023-02-15T03:58:13;2.30;99.90
27647;DHT22;42229;51.230;6.240;2023-02-15T04:00:59;2.30;99.90
27647;DHT22;42229;51.230;6.240;2023-02-15T04:03:47;2.30;99.90
27647;DHT22;42229;51.230;6.240;2023-02-15T04:06:15;2.30;99.90
27647;DHT22;42229;51.230;6.240;2023-02-15T04:08:41;2.20;99.90
27647;DHT22;42229;51.230;6.240;2023-02-15T04:11:26;2.30;99.90
27647;DHT22;42229;51.230;6.240;2023-02-15T04:13:52;2.30;99.90
27647;DHT22;42229;51.230;6.240;2023-02-15T04:16:23;2.30;99.90
27647;DHT22;42229;51.230;6.240;2023-02-15T04:18:49;2.30;99.90
27647;DHT22;42229;51.230;6.240;2023-02-15T04:21:34;2.30;99.90
27647;DHT22;42229;51.230;6.240;2023-02-15T04:24:19;2.30;99.90
27647;DHT22;42229;51.230;6.240;2023-02-15T04:27:04;2.30;99.90
27647;DHT22;42229;51.230;6.240;2023-02-15T04:29:31;2.30;99.90
27647;DHT22;42229;51.230;6.240;2023-02-15T04:31:57;2.30;99.90
27647;DHT22;42229;51.230;6.240;2023-02-15T04:34:25;2.30;99.90
27647;DHT22;42229;51.230;6.240;2023-02-15T04:36:51;2.30;99.90
27647;DHT22;42229;51.230;6.240;2023-02-15T04:39:18;2.30;99.90
27647;DHT22;42229;51.230;6.240;2023-02-15T04:41:45;2.30;99.90
27647;DHT22;42229;51.230;6.240;2023-02-15T04:44:11;2.30;99.90
27647;DHT22;42229;51.230;6.240;2023-02-15T04:46:37;2.30;99.90
27647;DHT22;42229;51.230;6.240;2023-02-15T04:49:03;2.30;99.90
27647;DHT22;42229;51.230;6.240;2023-02-15T04:51:30;2.30;99.90
27647;DHT22;42229;51.230;6.240;2023-02-15T04:53:56;2.30;99.90
27647;DHT22;42229;51.230;6.240;2023-02-15T04:56:22;2.30;99.90
27647;DHT22;42229;51.230;6.240;2023-02-15T04:58:48;2.30;99.90
27647;DHT22;42229;51.230;6.240;2023-02-15T05:01:15;2.30;99.90
27647;DHT22;42229;51.230;6.240;2023-02-15T05:03:41;2.30;99.90
27647;DHT22;42229;51.230;6.240;2023-02-15T05:06:07;2.30;99.90
27647;DHT22;42229;51.230;6.240;2023-02-15T05:08:33;2.30;99.90
27647;DHT22;42229;51.230;6.240;2023-02-15T05:11:00;2.30;99.90
27647;DHT22;42229;51.230;6.240;2023-02-15T05:13:26;2.30;99.90
27647;DHT22;42229;51.230;6.240;2023-02-15T05:15:52;2.30;99.90
27647;DHT22;42229;51.230;6.240;2023-02-15T05:18:20;2.30;99.90
27647;DHT22;42229;51.230;6.240;2023-02-15T05:20:46;2.30;99.90
27647;DHT22;42229;51.230;6.240;2023-02-15T05:23:13;2.30;99.90
27647;DHT22;42229;51.230;6.240;2023-02-15T05:25:39;2.40;99.90
27647;DHT22;42229;51.230;6.240;2023-02-15T05:28:25;2.30;99.90
27647;DHT22;42229;51.230;6.240;2023-02-15T05:33:31;2.30;99.90
27647;DHT22;42229;51.230;6.240;2023-02-15T05:35:57;2.30;99.90
27647;DHT22;42229;51.230;6.240;2023-02-15T05:38:23;2.30;99.90
27647;DHT22;42229;51.230;6.240;2023-02-15T05:40:50;2.30;99.90
27647;DHT22;42229;51.230;6.240;2023-02-15T05:43:17;2.30;99.90
27647;DHT22;42229;51.230;6.240;2023-02-15T05:45:48;2.30;99.90
27647;DHT22;42229;51.230;6.240;2023-02-15T05:48:15;2.30;99.90
27647;DHT22;42229;51.230;6.240;2023-02-15T05:50:42;2.30;99.90
27647;DHT22;42229;51.230;6.240;2023-02-15T05:53:08;2.30;99.90
27647;DHT22;42229;51.230;6.240;2023-02-15T05:55:36;2.30;99.90
27647;DHT22;42229;51.230;6.240;2023-02-15T05:58:04;2.30;99.90
27647;DHT22;42229;51.230;6.240;2023-02-15T06:00:31;2.30;99.90
27647;DHT22;42229;51.230;6.240;2023-02-15T06:02:57;2.30;99.90
27647;DHT22;42229;51.230;6.240;2023-02-15T06:05:23;2.30;99.90
27647;DHT22;42229;51.230;6.240;2023-02-15T06:07:49;2.30;99.90
27647;DHT22;42229;51.230;6.240;2023-02-15T06:10:16;2.30;99.90
27647;DHT22;42229;51.230;6.240;2023-02-15T06:12:43;2.30;99.90
27647;DHT22;42229;51.230;6.240;2023-02-15T06:15:11;2.30;99.90
27647;DHT22;42229;51.230;6.240;2023-02-15T06:17:37;2.30;99.90
27647;DHT22;42229;51.230;6.240;2023-02-15T06:20:03;2.30;99.90
27647;DHT22;42229;51.230;6.240;2023-02-15T06:22:30;2.30;99.90
27647;DHT22;42229;51.230;6.240;2023-02-15T06:24:56;2.30;99.90
27647;DHT22;42229;51.230;6.240;2023-02-15T06:27:22;2.30;99.90
27647;DHT22;42229;51.230;6.240;2023-02-15T06:29:49;2.30;99.90
27647;DHT22;42229;51.230;6.240;2023-02-15T06:32:15;2.30;99.90
27647;DHT22;42229;51.230;6.240;2023-02-15T06:34:41;2.30;99.90
27647;DHT22;42229;51.230;6.240;2023-02-15T06:37:07;2.30;99.90
27647;DHT22;42229;51.230;6.240;2023-02-15T06:39:34;2.30;99.90
27647;DHT22;42229;51.230;6.240;2023-02-15T06:42:00;2.30;99.90
27647;DHT22;42229;51.230;6.240;2023-02-15T06:44:26;2.30;99.90
27647;DHT22;42229;51.230;6.240;2023-02-15T06:46:52;2.30;99.90
27647;DHT22;42229;51.230;6.240;2023-02-15T06:49:19;2.30;99.90
27647;DHT22;42229;51.230;6.240;2023-02-15T06:51:45;2.30;99.90
27647;DHT22;42229;51.230;6.240;2023-02-15T06:54:11;2.40;99.90
27647;DHT22;42229;51.230;6.240;2023-02-15T06:56:38;2.40;99.90
27647;DHT22;42229;51.230;6.240;2023-02-15T06:59:04;2.30;99.90
27647;DHT22;42229;51.230;6.240;2023-02-15T07:01:30;2.40;99.90
27647;DHT22;42229;51.230;6.240;2023-02-15T07:03:57;2.40;99.90
27647;DHT22;42229;51.230;6.240;2023-02-15T07:06:23;2.40;99.90
27647;DHT22;42229;51.230;6.240;2023-02-15T07:08:49;2.40;99.90
27647;DHT22;42229;51.230;6.240;2023-02-15T07:11:15;2.40;99.90
27647;DHT22;42229;51.230;6.240;2023-02-15T07:14:00;2.40;99.90
27647;DHT22;42229;51.230;6.240;2023-02-15T07:16:26;2.50;99.90
27647;DHT22;42229;51.230;6.240;2023-02-15T07:18:52;2.50;99.90
27647;DHT22;42229;51.230;6.240;2023-02-15T07:21:19;2.50;99.90
27647;DHT22;42229;51.230;6.240;2023-02-15T07:23:45;2.50;99.90
27647;DHT22;42229;51.230;6.240;2023-02-15T07:26:11;2.50;99.90
27647;DHT22;42229;51.230;6.240;2023-02-15T07:28:37;2.60;99.90
27647;DHT22;42229;51.230;6.240;2023-02-15T07:31:04;2.60;99.90
27647;DHT22;42229;51.230;6.240;2023-02-15T07:33:31;2.60;99.90
27647;DHT22;42229;51.230;6.240;2023-02-15T07:35:58;2.70;99.90
27647;DHT22;42229;51.230;6.240;2023-02-15T07:38:30;2.60;99.90
27647;DHT22;42229;51.230;6.240;2023-02-15T07:40:58;2.70;99.90
27647;DHT22;42229;51.230;6.240;2023-02-15T07:43:25;2.70;99.90
27647;DHT22;42229;51.230;6.240;2023-02-15T07:45:51;2.80;99.90
27647;DHT22;42229;51.230;6.240;2023-02-15T07:48:17;2.80;99.90
27647;DHT22;42229;51.230;6.240;2023-02-15T07:50:44;2.80;99.90
27647;DHT22;42229;51.230;6.240;2023-02-15T07:53:10;2.90;99.90
27647;DHT22;42229;51.230;6.240;2023-02-15T07:55:36;3.00;99.90
27647;DHT22;42229;51.230;6.240;2023-02-15T07:58:02;3.00;99.90
27647;DHT22;42229;51.230;6.240;2023-02-15T08:00:29;3.10;99.90
27647;DHT22;42229;51.230;6.240;2023-02-15T08:02:55;3.10;99.90
27647;DHT22;42229;51.230;6.240;2023-02-15T08:05:40;3.20;99.90
27647;DHT22;42229;51.230;6.240;2023-02-15T08:08:08;3.30;99.90
27647;DHT22;42229;51.230;6.240;2023-02-15T08:10:35;3.30;99.90
27647;DHT22;42229;51.230;6.240;2023-02-15T08:13:20;3.40;99.90
27647;DHT22;42229;51.230;6.240;2023-02-15T08:15:50;3.50;99.90
27647;DHT22;42229;51.230;6.240;2023-02-15T08:18:16;3.50;99.90
27647;DHT22;42229;51.230;6.240;2023-02-15T08:20:42;3.60;99.90
27647;DHT22;42229;51.230;6.240;2023-02-15T08:23:08;3.60;99.90
27647;DHT22;42229;51.230;6.240;2023-02-15T08:25:35;3.70;99.90
27647;DHT22;42229;51.230;6.240;2023-02-15T08:28:01;3.80;99.90
27647;DHT22;42229;51.230;6.240;2023-02-15T08:30:27;3.90;99.90
27647;DHT22;42229;51.230;6.240;2023-02-15T08:32:53;4.00;99.90
27647;DHT22;42229;51.230;6.240;2023-02-15T08:35:19;4.10;99.90
27647;DHT22;42229;51.230;6.240;2023-02-15T08:37:46;4.20;99.90
27647;DHT22;42229;51.230;6.240;2023-02-15T08:40:12;4.20;99.90
27647;DHT22;42229;51.230;6.240;2023-02-15T08:42:39;4.40;99.90
27647;DHT22;42229;51.230;6.240;2023-02-15T08:45:05;4.40;99.90
27647;DHT22;42229;51.230;6.240;2023-02-15T08:47:32;4.50;99.90
27647;DHT22;42229;51.230;6.240;2023-02-15T08:49:58;4.60;99.90
27647;DHT22;42229;51.230;6.240;2023-02-15T08:52:24;4.70;99.90
27647;DHT22;42229;51.230;6.240;2023-02-15T08:54:51;4.80;99.90
27647;DHT22;42229;51.230;6.240;2023-02-15T08:57:17;4.90;99.90
27647;DHT22;42229;51.230;6.240;2023-02-15T08:59:43;5.00;99.90
27647;DHT22;42229;51.230;6.240;2023-02-15T09:02:09;5.10;99.90
27647;DHT22;42229;51.230;6.240;2023-02-15T09:04:36;5.20;99.90
27647;DHT22;42229;51.230;6.240;2023-02-15T09:07:02;5.30;99.90
27647;DHT22;42229;51.230;6.240;2023-02-15T09:09:30;5.40;99.90
27647;DHT22;42229;51.230;6.240;2023-02-15T09:11:57;5.50;99.90
27647;DHT22;42229;51.230;6.240;2023-02-15T09:14:23;5.60;99.90
27647;DHT22;42229;51.230;6.240;2023-02-15T09:16:52;5.70;99.90
27647;DHT22;42229;51.230;6.240;2023-02-15T09:19:19;5.80;99.90
27647;DHT22;42229;51.230;6.240;2023-02-15T09:21:46;6.00;99.90
27647;DHT22;42229;51.230;6.240;2023-02-15T09:24:14;6.10;99.90
27647;DHT22;42229;51.230;6.240;2023-02-15T09:26:42;6.20;99.90
27647;DHT22;42229;51.230;6.240;2023-02-15T09:29:10;6.30;99.90
27647;DHT22;42229;51.230;6.240;2023-02-15T09:31:37;6.40;99.90
27647;DHT22;42229;51.230;6.240;2023-02-15T09:34:10;6.50;99.90
27647;DHT22;42229;51.230;6.240;2023-02-15T09:36:38;6.60;99.90
27647;DHT22;42229;51.230;6.240;2023-02-15T09:39:23;6.70;99.90
27647;DHT22;42229;51.230;6.240;2023-02-15T09:47:22;7.10;99.90
27647;DHT22;42229;51.230;6.240;2023-02-15T10:01:20;7.70;99.90
27647;DHT22;42229;51.230;6.240;2023-02-15T10:21:49;8.50;99.90
27647;DHT22;42229;51.230;6.240;2023-02-15T10:29:15;8.90;99.90
27647;DHT22;42229;51.230;6.240;2023-02-15T10:40:22;9.50;99.90
27647;DHT22;42229;51.230;6.240;2023-02-15T10:51:54;10.10;99.90
27647;DHT22;42229;51.230;6.240;2023-02-15T10:59:57;10.60;99.90
27647;DHT22;42229;51.230;6.240;2023-02-15T11:07:57;11.00;99.90
27647;DHT22;42229;51.230;6.240;2023-02-15T11:13:12;11.40;99.90
27647;DHT22;42229;51.230;6.240;2023-02-15T11:21:30;11.90;99.90
27647;DHT22;42229;51.230;6.240;2023-02-15T11:23:59;12.10;99.90
27647;DHT22;42229;51.230;6.240;2023-02-15T11:26:28;12.30;99.90
27647;DHT22;42229;51.230;6.240;2023-02-15T11:29:14;12.40;99.90
27647;DHT22;42229;51.230;6.240;2023-02-15T11:31:47;12.50;99.90
27647;DHT22;42229;51.230;6.240;2023-02-15T11:34:38;12.80;99.90
27647;DHT22;42229;51.230;6.240;2023-02-15T11:37:05;12.90;99.90
27647;DHT22;42229;51.230;6.240;2023-02-15T11:39:34;13.10;99.90
27647;DHT22;42229;51.230;6.240;2023-02-15T11:42:02;13.30;99.90
27647;DHT22;42229;51.230;6.240;2023-02-15T11:44:35;13.50;99.90
27647;DHT22;42229;51.230;6.240;2023-02-15T11:47:08;13.60;99.90
27647;DHT22;42229;51.230;6.240;2023-02-15T11:49:38;13.80;99.90
27647;DHT22;42229;51.230;6.240;2023-02-15T11:52:10;14.10;99.90
27647;DHT22;42229;51.230;6.240;2023-02-15T11:54:42;14.30;99.90
27647;DHT22;42229;51.230;6.240;2023-02-15T11:57:31;14.60;99.90
27647;DHT22;42229;51.230;6.240;2023-02-15T12:00:02;14.80;99.90
27647;DHT22;42229;51.230;6.240;2023-02-15T12:02:36;15.20;99.90
27647;DHT22;42229;51.230;6.240;2023-02-15T12:05:05;15.60;99.90
27647;DHT22;42229;51.230;6.240;2023-02-15T12:07:36;15.90;99.90
27647;DHT22;42229;51.230;6.240;2023-02-15T12:10:05;16.30;99.90
27647;DHT22;42229;51.230;6.240;2023-02-15T12:15:48;16.90;99.00
27647;DHT22;42229;51.230;6.240;2023-02-15T12:21:02;17.50;97.70
27647;DHT22;42229;51.230;6.240;2023-02-15T12:23:31;17.80;97.50
27647;DHT22;42229;51.230;6.240;2023-02-15T12:25:57;18.10;98.30
27647;DHT22;42229;51.230;6.240;2023-02-15T12:28:25;18.40;99.90
27647;DHT22;42229;51.230;6.240;2023-02-15T12:30:59;18.70;99.90
27647;DHT22;42229;51.230;6.240;2023-02-15T12:36:00;19.40;99.00
27647;DHT22;42229;51.230;6.240;2023-02-15T12:38:29;19.60;99.90
27647;DHT22;42229;51.230;6.240;2023-02-15T12:40:57;20.00;99.90
27647;DHT22;42229;51.230;6.240;2023-02-15T12:43:31;20.20;98.50
27647;DHT22;42229;51.230;6.240;2023-02-15T12:51:47;21.10;99.90
27647;DHT22;42229;51.230;6.240;2023-02-15T12:54:17;21.40;97.50
27647;DHT22;42229;51.230;6.240;2023-02-15T12:56:43;21.60;93.20
27647;DHT22;42229;51.230;6.240;2023-02-15T12:59:10;21.80;92.50
27647;DHT22;42229;51.230;6.240;2023-02-15T13:01:40;22.00;97.80
27647;DHT22;42229;51.230;6.240;2023-02-15T13:06:54;22.30;93.70
27647;DHT22;42229;51.230;6.240;2023-02-15T13:09:25;22.50;94.00
27647;DHT22;42229;51.230;6.240;2023-02-15T13:12:15;22.60;92.00
27647;DHT22;42229;51.230;6.240;2023-02-15T13:14:49;22.60;91.10
27647;DHT22;42229;51.230;6.240;2023-02-15T13:17:18;22.80;87.70
27647;DHT22;42229;51.230;6.240;2023-02-15T13:19:52;22.90;86.10
27647;DHT22;42229;51.230;6.240;2023-02-15T13:22:23;23.10;90.90
27647;DHT22;42229;51.230;6.240;2023-02-15T13:24:54;23.20;84.50
27647;DHT22;42229;51.230;6.240;2023-02-15T13:27:23;23.30;95.10
27647;DHT22;42229;51.230;6.240;2023-02-15T13:29:53;23.40;90.40
27647;DHT22;42229;51.230;6.240;2023-02-15T13:32:28;23.50;89.10
27647;DHT22;42229;51.230;6.240;2023-02-15T13:35:00;23.50;78.40
27647;DHT22;42229;51.230;6.240;2023-02-15T13:44:03;23.70;77.90
27647;DHT22;42229;51.230;6.240;2023-02-15T13:46:37;23.70;82.30
27647;DHT22;42229;51.230;6.240;2023-02-15T13:54:49;23.60;88.60
27647;DHT22;42229;51.230;6.240;2023-02-15T14:08:55;23.40;86.80
27647;DHT22;42229;51.230;6.240;2023-02-15T14:11:49;23.30;92.00
27647;DHT22;42229;51.230;6.240;2023-02-15T14:16:54;23.00;80.00
27647;DHT22;42229;51.230;6.240;2023-02-15T14:19:45;22.90;84.40
27647;DHT22;42229;51.230;6.240;2023-02-15T14:22:22;22.80;90.80
27647;DHT22;42229;51.230;6.240;2023-02-15T14:27:27;22.30;92.90
27647;DHT22;42229;51.230;6.240;2023-02-15T14:29:59;22.00;90.70
27647;DHT22;42229;51.230;6.240;2023-02-15T14:32:36;21.80;88.80
27647;DHT22;42229;51.230;6.240;2023-02-15T14:35:17;21.50;93.50
27647;DHT22;42229;51.230;6.240;2023-02-15T14:43:47;20.80;91.20
27647;DHT22;42229;51.230;6.240;2023-02-15T14:48:46;20.50;91.20
27647;DHT22;42229;51.230;6.240;2023-02-15T14:51:39;20.30;88.70
27647;DHT22;42229;51.230;6.240;2023-02-15T15:07:28;19.90;93.70
27647;DHT22;42229;51.230;6.240;2023-02-15T15:12:56;19.60;88.10
27647;DHT22;42229;51.230;6.240;2023-02-15T15:28:06;19.00;93.70
27647;DHT22;42229;51.230;6.240;2023-02-15T15:44:55;17.90;94.20
27647;DHT22;42229;51.230;6.240;2023-02-15T15:50:17;17.40;94.40
27647;DHT22;42229;51.230;6.240;2023-02-15T15:52:50;17.20;94.80
27647;DHT22;42229;51.230;6.240;2023-02-15T15:55:19;17.00;95.20
27647;DHT22;42229;51.230;6.240;2023-02-15T15:57:49;16.80;95.50
27647;DHT22;42229;51.230;6.240;2023-02-15T16:02:54;16.50;95.80
27647;DHT22;42229;51.230;6.240;2023-02-15T16:05:23;16.30;96.20
27647;DHT22;42229;51.230;6.240;2023-02-15T16:07:50;16.10;96.20
27647;DHT22;42229;51.230;6.240;2023-02-15T16:10:26;16.00;96.70
27647;DHT22;42229;51.230;6.240;2023-02-15T16:12:53;15.90;97.00
27647;DHT22;42229;51.230;6.240;2023-02-15T16:15:22;15.70;97.20
27647;DHT22;42229;51.230;6.240;2023-02-15T16:17:51;15.60;97.20
27647;DHT22;42229;51.230;6.240;2023-02-15T16:20:29;15.40;97.30
27647;DHT22;42229;51.230;6.240;2023-02-15T16:28:35;15.00;98.00
27647;DHT22;42229;51.230;6.240;2023-02-15T16:31:06;14.90;98.10
27647;DHT22;42229;51.230;6.240;2023-02-15T16:33:40;14.80;98.30
27647;DHT22;42229;51.230;6.240;2023-02-15T16:36:10;14.60;98.40
27647;DHT22;42229;51.230;6.240;2023-02-15T16:41:10;14.40;98.60
27647;DHT22;42229;51.230;6.240;2023-02-15T16:43:38;14.30;98.80
27647;DHT22;42229;51.230;6.240;2023-02-15T16:46:08;14.20;98.90
27647;DHT22;42229;51.230;6.240;2023-02-15T16:48:39;14.10;99.00
27647;DHT22;42229;51.230;6.240;2023-02-15T16:51:07;13.90;99.10
27647;DHT22;42229;51.230;6.240;2023-02-15T16:53:34;13.80;99.50
27647;DHT22;42229;51.230;6.240;2023-02-15T16:56:04;13.70;99.20
27647;DHT22;42229;51.230;6.240;2023-02-15T16:58:32;13.60;99.40
27647;DHT22;42229;51.230;6.240;2023-02-15T17:01:03;13.50;99.50
27647;DHT22;42229;51.230;6.240;2023-02-15T17:03:32;13.40;99.60
27647;DHT22;42229;51.230;6.240;2023-02-15T17:05:59;13.30;99.90
27647;DHT22;42229;51.230;6.240;2023-02-15T17:16:40;12.80;99.90
27647;DHT22;42229;51.230;6.240;2023-02-15T17:19:09;12.70;99.90
27647;DHT22;42229;51.230;6.240;2023-02-15T17:21:41;12.60;99.90
27647;DHT22;42229;51.230;6.240;2023-02-15T17:24:15;12.50;99.90
27647;DHT22;42229;51.230;6.240;2023-02-15T17:26:53;12.50;99.90
27647;DHT22;42229;51.230;6.240;2023-02-15T17:29:28;12.40;99.90
27647;DHT22;42229;51.230;6.240;2023-02-15T17:32:09;12.30;99.90
27647;DHT22;42229;51.230;6.240;2023-02-15T17:37:28;12.20;99.90
27647;DHT22;42229;51.230;6.240;2023-02-15T17:40:07;12.10;99.90
27647;DHT22;42229;51.230;6.240;2023-02-15T17:42:50;12.00;99.90
27647;DHT22;42229;51.230;6.240;2023-02-15T17:45:19;12.00;99.90
27647;DHT22;42229;51.230;6.240;2023-02-15T17:47:47;11.80;99.90
27647;DHT22;42229;51.230;6.240;2023-02-15T17:50:21;11.80;99.90
27647;DHT22;42229;51.230;6.240;2023-02-15T17:52:49;11.70;99.90
27647;DHT22;42229;51.230;6.240;2023-02-15T17:55:18;11.60;99.90
27647;DHT22;42229;51.230;6.240;2023-02-15T17:58:05;11.60;99.90
27647;DHT22;42229;51.230;6.240;2023-02-15T18:00:42;11.50;99.90
27647;DHT22;42229;51.230;6.240;2023-02-15T18:06:23;11.30;99.90
27647;DHT22;42229;51.230;6.240;2023-02-15T18:09:09;11.20;99.90
27647;DHT22;42229;51.230;6.240;2023-02-15T18:11:55;11.20;99.90
27647;DHT22;42229;51.230;6.240;2023-02-15T18:14:22;11.10;99.90
27647;DHT22;42229;51.230;6.240;2023-02-15T18:16:48;11.10;99.90
27647;DHT22;42229;51.230;6.240;2023-02-15T18:19:16;11.00;99.90
27647;DHT22;42229;51.230;6.240;2023-02-15T18:21:44;11.00;99.90
27647;DHT22;42229;51.230;6.240;2023-02-15T18:24:15;10.90;99.90
27647;DHT22;42229;51.230;6.240;2023-02-15T18:26:43;10.90;99.90
27647;DHT22;42229;51.230;6.240;2023-02-15T18:29:10;10.80;99.90
27647;DHT22;42229;51.230;6.240;2023-02-15T18:31:36;10.70;99.90
27647;DHT22;42229;51.230;6.240;2023-02-15T18:34:02;10.70;99.90
27647;DHT22;42229;51.230;6.240;2023-02-15T18:36:30;10.70;99.90
27647;DHT22;42229;51.230;6.240;2023-02-15T18:38:58;10.60;99.90
27647;DHT22;42229;51.230;6.240;2023-02-15T18:41:25;10.60;99.90
27647;DHT22;42229;51.230;6.240;2023-02-15T18:43:51;10.50;99.90
27647;DHT22;42229;51.230;6.240;2023-02-15T18:46:19;10.40;99.90
27647;DHT22;42229;51.230;6.240;2023-02-15T18:48:45;10.30;99.90
27647;DHT22;42229;51.230;6.240;2023-02-15T18:51:21;10.30;99.90
27647;DHT22;42229;51.230;6.240;2023-02-15T18:53:51;10.20;99.90
27647;DHT22;42229;51.230;6.240;2023-02-15T18:56:19;10.20;99.90
27647;DHT22;42229;51.230;6.240;2023-02-15T18:58:46;10.20;99.90
27647;DHT22;42229;51.230;6.240;2023-02-15T19:01:14;10.10;99.90
27647;DHT22;42229;51.230;6.240;2023-02-15T19:03:46;10.00;99.90
27647;DHT22;42229;51.230;6.240;2023-02-15T19:06:14;10.00;99.90
27647;DHT22;42229;51.230;6.240;2023-02-15T19:08:43;9.90;99.90
27647;DHT22;42229;51.230;6.240;2023-02-15T19:11:11;9.90;99.90
27647;DHT22;42229;51.230;6.240;2023-02-15T19:13:40;9.80;99.90
27647;DHT22;42229;51.230;6.240;2023-02-15T19:16:08;9.80;99.90
27647;DHT22;42229;51.230;6.240;2023-02-15T19:18:51;9.70;99.90
27647;DHT22;42229;51.230;6.240;2023-02-15T19:21:17;9.70;99.90
27647;DHT22;42229;51.230;6.240;2023-02-15T19:23:53;9.70;99.90
27647;DHT22;42229;51.230;6.240;2023-02-15T19:26:22;9.60;99.90
27647;DHT22;42229;51.230;6.240;2023-02-15T19:28:49;9.60;99.90
27647;DHT22;42229;51.230;6.240;2023-02-15T19:31:16;9.50;99.90
27647;DHT22;42229;51.230;6.240;2023-02-15T19:33:43;9.50;99.90
27647;DHT22;42229;51.230;6.240;2023-02-15T19:36:13;9.50;99.90
27647;DHT22;42229;51.230;6.240;2023-02-15T19:38:43;9.40;99.90
27647;DHT22;42229;51.230;6.240;2023-02-15T19:41:18;9.40;99.90
27647;DHT22;42229;51.230;6.240;2023-02-15T19:43:51;9.40;99.90
27647;DHT22;42229;51.230;6.240;2023-02-15T19:46:20;9.40;99.90
27647;DHT22;42229;51.230;6.240;2023-02-15T19:49:16;9.20;99.90